<?xml version="1.0" encoding="UTF-8" standalone="no" ?>
<gpx xmlns="http://www.topografix.com/GPX/1/1" xmlns:xsi="http://www.w3.org/2001/XMLSchema-instance" xsi:schemaLocation="http://www.topografix.com/GPX/1/1 http://www.topografix.com/GPX/1/1/gpx.xsd" version="1.1" creator="VisuGPX - https://www.visugpx.com">
  <metadata>
    <name>Turquie_100points</name>
  </metadata>
  <trk>
    <name><![CDATA[Tour d'Europe: étape 549]]></name>
    <extensions>
      <line xmlns="http://www.topografix.com/GPX/gpx_style/0/2">
        <color>888800</color>
        <width>4</width>
      </line>
    </extensions>
    <trkseg>
      <trkpt lat="38.64139" lon="34.8274">
        <ele>1140.641692</ele>
        <time>2021-12-29T08:43:46.599Z</time>
      </trkpt>
      <trkpt lat="38.64115" lon="34.82831">
        <ele>1140.713084</ele>
        <time>2021-12-29T08:55:13.739Z</time>
      </trkpt>
      <trkpt lat="38.64284" lon="34.82925">
        <ele>1141.538837</ele>
        <time>2021-12-29T08:56:20.762Z</time>
      </trkpt>
      <trkpt lat="38.64462" lon="34.82839">
        <ele>1145.859808</ele>
        <time>2021-12-29T08:57:49.755Z</time>
      </trkpt>
      <trkpt lat="38.64574" lon="34.82636">
        <ele>1152.107368</ele>
        <time>2021-12-29T08:59:38.764Z</time>
      </trkpt>
      <trkpt lat="38.64649" lon="34.82412">
        <ele>1172.553894</ele>
        <time>2021-12-29T09:02:09.759Z</time>
      </trkpt>
      <trkpt lat="38.64699" lon="34.82207">
        <ele>1194.959819</ele>
        <time>2021-12-29T09:05:06.756Z</time>
      </trkpt>
      <trkpt lat="38.6462" lon="34.8199">
        <ele>1202.812503</ele>
        <time>2021-12-29T09:07:50.761Z</time>
      </trkpt>
      <trkpt lat="38.64445" lon="34.81876">
        <ele>1211.526605</ele>
        <time>2021-12-29T09:10:58.764Z</time>
      </trkpt>
      <trkpt lat="38.64259" lon="34.81794">
        <ele>1222.181643</ele>
        <time>2021-12-29T09:12:52.763Z</time>
      </trkpt>
      <trkpt lat="38.64091" lon="34.8167">
        <ele>1232.803851</ele>
        <time>2021-12-29T09:14:50.779Z</time>
      </trkpt>
      <trkpt lat="38.63936" lon="34.81514">
        <ele>1244.96829</ele>
        <time>2021-12-29T09:16:57.762Z</time>
      </trkpt>
      <trkpt lat="38.63768" lon="34.81386">
        <ele>1258.636734</ele>
        <time>2021-12-29T09:19:07.806Z</time>
      </trkpt>
      <trkpt lat="38.63599" lon="34.81278">
        <ele>1273.736548</ele>
        <time>2021-12-29T09:21:41.771Z</time>
      </trkpt>
      <trkpt lat="38.63477" lon="34.81096">
        <ele>1281.938206</ele>
        <time>2021-12-29T09:24:00.767Z</time>
      </trkpt>
      <trkpt lat="38.6344" lon="34.80784">
        <ele>1279.584102</ele>
        <time>2021-12-29T09:25:03.756Z</time>
      </trkpt>
      <trkpt lat="38.63494" lon="34.80558">
        <ele>1287.1816</ele>
        <time>2021-12-29T09:26:44.755Z</time>
      </trkpt>
      <trkpt lat="38.6335" lon="34.8041">
        <ele>1294.367116</ele>
        <time>2021-12-29T09:28:40.768Z</time>
      </trkpt>
      <trkpt lat="38.63414" lon="34.80205">
        <ele>1303.801683</ele>
        <time>2021-12-29T09:44:47.504Z</time>
      </trkpt>
      <trkpt lat="38.63311" lon="34.80062">
        <ele>1316.689846</ele>
        <time>2021-12-29T09:46:47.487Z</time>
      </trkpt>
      <trkpt lat="38.63254" lon="34.79839">
        <ele>1332.940559</ele>
        <time>2021-12-29T09:49:24.467Z</time>
      </trkpt>
      <trkpt lat="38.63091" lon="34.79716">
        <ele>1345.477321</ele>
        <time>2021-12-29T09:51:43.453Z</time>
      </trkpt>
      <trkpt lat="38.62998" lon="34.79932">
        <ele>1356.049544</ele>
        <time>2021-12-29T09:53:10.464Z</time>
      </trkpt>
      <trkpt lat="38.62905" lon="34.80152">
        <ele>1362.958546</ele>
        <time>2021-12-29T09:54:43.472Z</time>
      </trkpt>
      <trkpt lat="38.62809" lon="34.80363">
        <ele>1373.2016</ele>
        <time>2021-12-29T09:56:37.469Z</time>
      </trkpt>
      <trkpt lat="38.62643" lon="34.80189">
        <ele>1362.024121</ele>
        <time>2021-12-29T09:57:24.515Z</time>
      </trkpt>
      <trkpt lat="38.6249" lon="34.80003">
        <ele>1359.337201</ele>
        <time>2021-12-29T09:58:06.479Z</time>
      </trkpt>
      <trkpt lat="38.62355" lon="34.7983">
        <ele>1358.96277</ele>
        <time>2021-12-29T09:59:04.474Z</time>
      </trkpt>
      <trkpt lat="38.62251" lon="34.796">
        <ele>1367.223178</ele>
        <time>2021-12-29T10:00:19.515Z</time>
      </trkpt>
      <trkpt lat="38.62137" lon="34.79383">
        <ele>1371.319472</ele>
        <time>2021-12-29T10:01:54.482Z</time>
      </trkpt>
      <trkpt lat="38.61928" lon="34.7915">
        <ele>1361.79497</ele>
        <time>2021-12-29T10:02:36.509Z</time>
      </trkpt>
      <trkpt lat="38.61758" lon="34.78928">
        <ele>1355.227052</ele>
        <time>2021-12-29T10:03:18.491Z</time>
      </trkpt>
      <trkpt lat="38.61544" lon="34.78713">
        <ele>1347.156214</ele>
        <time>2021-12-29T10:03:58.488Z</time>
      </trkpt>
      <trkpt lat="38.61346" lon="34.7852">
        <ele>1340.863951</ele>
        <time>2021-12-29T10:04:39.462Z</time>
      </trkpt>
      <trkpt lat="38.61151" lon="34.78421">
        <ele>1341.739411</ele>
        <time>2021-12-29T10:05:29.481Z</time>
      </trkpt>
      <trkpt lat="38.6096" lon="34.78314">
        <ele>1346.993001</ele>
        <time>2021-12-29T10:06:37.478Z</time>
      </trkpt>
      <trkpt lat="38.60776" lon="34.78217">
        <ele>1353.402391</ele>
        <time>2021-12-29T10:08:10.474Z</time>
      </trkpt>
      <trkpt lat="38.60592" lon="34.78115">
        <ele>1364.925109</ele>
        <time>2021-12-29T10:10:08.483Z</time>
      </trkpt>
      <trkpt lat="38.60425" lon="34.77995">
        <ele>1371.337873</ele>
        <time>2021-12-29T10:11:49.480Z</time>
      </trkpt>
      <trkpt lat="38.60237" lon="34.77905">
        <ele>1377.83318</ele>
        <time>2021-12-29T10:13:26.480Z</time>
      </trkpt>
      <trkpt lat="38.60047" lon="34.7782">
        <ele>1385.372854</ele>
        <time>2021-12-29T10:15:20.480Z</time>
      </trkpt>
      <trkpt lat="38.59867" lon="34.77726">
        <ele>1395.102592</ele>
        <time>2021-12-29T10:17:16.503Z</time>
      </trkpt>
      <trkpt lat="38.59691" lon="34.77624">
        <ele>1409.976237</ele>
        <time>2021-12-29T10:19:44.483Z</time>
      </trkpt>
      <trkpt lat="38.59515" lon="34.77531">
        <ele>1422.132123</ele>
        <time>2021-12-29T10:22:26.493Z</time>
      </trkpt>
      <trkpt lat="38.5928" lon="34.77508">
        <ele>1414.986672</ele>
        <time>2021-12-29T10:23:08.488Z</time>
      </trkpt>
      <trkpt lat="38.59062" lon="34.77411">
        <ele>1418.152958</ele>
        <time>2021-12-29T10:24:12.481Z</time>
      </trkpt>
      <trkpt lat="38.58877" lon="34.77326">
        <ele>1431.935281</ele>
        <time>2021-12-29T10:26:22.490Z</time>
      </trkpt>
      <trkpt lat="38.58698" lon="34.77243">
        <ele>1444.639838</ele>
        <time>2021-12-29T10:29:07.471Z</time>
      </trkpt>
      <trkpt lat="38.58505" lon="34.77185">
        <ele>1452.809376</ele>
        <time>2021-12-29T10:31:00.480Z</time>
      </trkpt>
      <trkpt lat="38.58321" lon="34.77137">
        <ele>1459.643548</ele>
        <time>2021-12-29T10:32:25.489Z</time>
      </trkpt>
      <trkpt lat="38.58133" lon="34.77063">
        <ele>1466.547073</ele>
        <time>2021-12-29T10:34:18.485Z</time>
      </trkpt>
      <trkpt lat="38.57959" lon="34.76944">
        <ele>1473.19614</ele>
        <time>2021-12-29T10:35:59.481Z</time>
      </trkpt>
      <trkpt lat="38.57754" lon="34.76852">
        <ele>1471.464974</ele>
        <time>2021-12-29T10:39:24.524Z</time>
      </trkpt>
      <trkpt lat="38.57483" lon="34.76836">
        <ele>1454.330351</ele>
        <time>2021-12-29T10:40:04.491Z</time>
      </trkpt>
      <trkpt lat="38.5717" lon="34.76835">
        <ele>1439.827283</ele>
        <time>2021-12-29T10:40:44.492Z</time>
      </trkpt>
      <trkpt lat="38.56869" lon="34.76745">
        <ele>1425.368307</ele>
        <time>2021-12-29T10:41:24.498Z</time>
      </trkpt>
      <trkpt lat="38.56648" lon="34.76591">
        <ele>1417.56645</ele>
        <time>2021-12-29T10:42:04.487Z</time>
      </trkpt>
      <trkpt lat="38.56407" lon="34.76459">
        <ele>1407.665068</ele>
        <time>2021-12-29T10:42:44.495Z</time>
      </trkpt>
      <trkpt lat="38.56175" lon="34.76374">
        <ele>1401.365071</ele>
        <time>2021-12-29T10:43:24.491Z</time>
      </trkpt>
      <trkpt lat="38.55923" lon="34.7628">
        <ele>1396.54568</ele>
        <time>2021-12-29T10:44:04.494Z</time>
      </trkpt>
      <trkpt lat="38.55723" lon="34.76261">
        <ele>1395.505679</ele>
        <time>2021-12-29T10:45:06.484Z</time>
      </trkpt>
      <trkpt lat="38.55503" lon="34.763">
        <ele>1392.188622</ele>
        <time>2021-12-29T10:45:59.530Z</time>
      </trkpt>
      <trkpt lat="38.55246" lon="34.76397">
        <ele>1383.112553</ele>
        <time>2021-12-29T10:46:39.516Z</time>
      </trkpt>
      <trkpt lat="38.55031" lon="34.7651">
        <ele>1377.864267</ele>
        <time>2021-12-29T10:47:22.496Z</time>
      </trkpt>
      <trkpt lat="38.54982" lon="34.76285">
        <ele>1379.716254</ele>
        <time>2021-12-29T10:48:12.504Z</time>
      </trkpt>
      <trkpt lat="38.54859" lon="34.76074">
        <ele>1385.891135</ele>
        <time>2021-12-29T10:49:35.488Z</time>
      </trkpt>
      <trkpt lat="38.54722" lon="34.75895">
        <ele>1390.520721</ele>
        <time>2021-12-29T10:51:20.507Z</time>
      </trkpt>
      <trkpt lat="38.54581" lon="34.75708">
        <ele>1393.51697</ele>
        <time>2021-12-29T10:52:52.495Z</time>
      </trkpt>
      <trkpt lat="38.54459" lon="34.7551">
        <ele>1400.196489</ele>
        <time>2021-12-29T10:54:22.496Z</time>
      </trkpt>
      <trkpt lat="38.54357" lon="34.75287">
        <ele>1405.372901</ele>
        <time>2021-12-29T10:55:55.503Z</time>
      </trkpt>
      <trkpt lat="38.54199" lon="34.7517">
        <ele>1402.026951</ele>
        <time>2021-12-29T10:56:53.498Z</time>
      </trkpt>
      <trkpt lat="38.53961" lon="34.75308">
        <ele>1396.942166</ele>
        <time>2021-12-29T10:57:33.520Z</time>
      </trkpt>
      <trkpt lat="38.53773" lon="34.75411">
        <ele>1397.855261</ele>
        <time>2021-12-29T10:58:36.541Z</time>
      </trkpt>
      <trkpt lat="38.53561" lon="34.75433">
        <ele>1398.15889</ele>
        <time>2021-12-29T11:00:03.531Z</time>
      </trkpt>
      <trkpt lat="38.53338" lon="34.75414">
        <ele>1396.874569</ele>
        <time>2021-12-29T11:00:57.514Z</time>
      </trkpt>
      <trkpt lat="38.53124" lon="34.75375">
        <ele>1399.865798</ele>
        <time>2021-12-29T11:01:57.505Z</time>
      </trkpt>
      <trkpt lat="38.52925" lon="34.75305">
        <ele>1407.888144</ele>
        <time>2021-12-29T11:03:34.500Z</time>
      </trkpt>
      <trkpt lat="38.52723" lon="34.75271">
        <ele>1408.905811</ele>
        <time>2021-12-29T11:05:05.506Z</time>
      </trkpt>
      <trkpt lat="38.52512" lon="34.75273">
        <ele>1406.16692</ele>
        <time>2021-12-29T11:05:50.527Z</time>
      </trkpt>
      <trkpt lat="38.52308" lon="34.75253">
        <ele>1407.527646</ele>
        <time>2021-12-29T11:06:52.514Z</time>
      </trkpt>
      <trkpt lat="38.52117" lon="34.752">
        <ele>1411.96111</ele>
        <time>2021-12-29T11:08:08.545Z</time>
      </trkpt>
      <trkpt lat="38.51919" lon="34.75128">
        <ele>1415.135088</ele>
        <time>2021-12-29T11:09:28.484Z</time>
      </trkpt>
      <trkpt lat="38.5172" lon="34.75052">
        <ele>1419.748299</ele>
        <time>2021-12-29T11:10:48.504Z</time>
      </trkpt>
      <trkpt lat="38.51519" lon="34.74995">
        <ele>1422.701186</ele>
        <time>2021-12-29T11:12:08.501Z</time>
      </trkpt>
      <trkpt lat="38.51314" lon="34.74982">
        <ele>1426.85217</ele>
        <time>2021-12-29T11:18:34.500Z</time>
      </trkpt>
      <trkpt lat="38.51098" lon="34.74991">
        <ele>1431.776611</ele>
        <time>2021-12-29T11:19:53.510Z</time>
      </trkpt>
      <trkpt lat="38.50887" lon="34.75006">
        <ele>1436.465047</ele>
        <time>2021-12-29T11:21:13.506Z</time>
      </trkpt>
      <trkpt lat="38.50685" lon="34.75115">
        <ele>1437.493689</ele>
        <time>2021-12-29T11:22:30.510Z</time>
      </trkpt>
      <trkpt lat="38.50495" lon="34.75236">
        <ele>1442.893224</ele>
        <time>2021-12-29T11:23:54.505Z</time>
      </trkpt>
      <trkpt lat="38.50304" lon="34.75264">
        <ele>1449.617769</ele>
        <time>2021-12-29T11:25:18.526Z</time>
      </trkpt>
      <trkpt lat="38.50087" lon="34.75316">
        <ele>1452.936159</ele>
        <time>2021-12-29T11:26:37.509Z</time>
      </trkpt>
      <trkpt lat="38.49898" lon="34.75354">
        <ele>1454.318279</ele>
        <time>2021-12-29T11:27:41.539Z</time>
      </trkpt>
      <trkpt lat="38.49683" lon="34.7541">
        <ele>1455.441941</ele>
        <time>2021-12-29T11:28:57.534Z</time>
      </trkpt>
      <trkpt lat="38.49478" lon="34.75394">
        <ele>1460.854982</ele>
        <time>2021-12-29T11:30:23.504Z</time>
      </trkpt>
      <trkpt lat="38.49285" lon="34.75351">
        <ele>1461.275333</ele>
        <time>2021-12-29T11:31:32.516Z</time>
      </trkpt>
      <trkpt lat="38.49096" lon="34.75307">
        <ele>1462.769842</ele>
        <time>2021-12-29T11:32:33.516Z</time>
      </trkpt>
      <trkpt lat="38.48877" lon="34.75306">
        <ele>1462.048415</ele>
        <time>2021-12-29T11:33:36.505Z</time>
      </trkpt>
      <trkpt lat="38.48657" lon="34.75306">
        <ele>1459.898708</ele>
        <time>2021-12-29T11:34:25.512Z</time>
      </trkpt>
      <trkpt lat="38.48434" lon="34.75281">
        <ele>1455.258687</ele>
        <time>2021-12-29T11:35:14.518Z</time>
      </trkpt>
      <trkpt lat="38.48206" lon="34.7531">
        <ele>1453.976043</ele>
        <time>2021-12-29T11:36:06.500Z</time>
      </trkpt>
      <trkpt lat="38.47998" lon="34.75328">
        <ele>1457.021936</ele>
        <time>2021-12-29T11:37:13.511Z</time>
      </trkpt>
      <trkpt lat="38.47801" lon="34.75298">
        <ele>1459.065326</ele>
        <time>2021-12-29T11:38:20.553Z</time>
      </trkpt>
      <trkpt lat="38.47603" lon="34.75253">
        <ele>1460.940039</ele>
        <time>2021-12-29T11:39:24.514Z</time>
      </trkpt>
      <trkpt lat="38.47402" lon="34.75218">
        <ele>1462.07833</ele>
        <time>2021-12-29T11:40:26.506Z</time>
      </trkpt>
      <trkpt lat="38.47188" lon="34.75218">
        <ele>1457.52309</ele>
        <time>2021-12-29T11:41:15.511Z</time>
      </trkpt>
      <trkpt lat="38.46973" lon="34.75202">
        <ele>1454.76225</ele>
        <time>2021-12-29T11:42:00.515Z</time>
      </trkpt>
      <trkpt lat="38.46774" lon="34.75162">
        <ele>1452.511909</ele>
        <time>2021-12-29T11:42:42.542Z</time>
      </trkpt>
      <trkpt lat="38.46551" lon="34.7513">
        <ele>1450.732945</ele>
        <time>2021-12-29T11:43:32.522Z</time>
      </trkpt>
      <trkpt lat="38.46358" lon="34.75107">
        <ele>1449.574934</ele>
        <time>2021-12-29T11:44:12.505Z</time>
      </trkpt>
      <trkpt lat="38.46126" lon="34.7505">
        <ele>1452.117269</ele>
        <time>2021-12-29T11:45:06.495Z</time>
      </trkpt>
      <trkpt lat="38.45916" lon="34.75036">
        <ele>1454.274211</ele>
        <time>2021-12-29T12:31:00.112Z</time>
      </trkpt>
      <trkpt lat="38.45684" lon="34.7503">
        <ele>1449.490058</ele>
        <time>2021-12-29T12:31:54.134Z</time>
      </trkpt>
      <trkpt lat="38.4546" lon="34.74983">
        <ele>1447.460442</ele>
        <time>2021-12-29T12:32:48.101Z</time>
      </trkpt>
      <trkpt lat="38.45249" lon="34.74861">
        <ele>1451.454451</ele>
        <time>2021-12-29T12:33:48.121Z</time>
      </trkpt>
      <trkpt lat="38.45031" lon="34.74768">
        <ele>1445.175987</ele>
        <time>2021-12-29T12:34:42.105Z</time>
      </trkpt>
      <trkpt lat="38.4482" lon="34.74678">
        <ele>1444.891911</ele>
        <time>2021-12-29T12:35:32.101Z</time>
      </trkpt>
      <trkpt lat="38.44591" lon="34.74575">
        <ele>1444.556762</ele>
        <time>2021-12-29T12:36:27.079Z</time>
      </trkpt>
      <trkpt lat="38.44362" lon="34.74477">
        <ele>1445.695921</ele>
        <time>2021-12-29T12:37:25.072Z</time>
      </trkpt>
      <trkpt lat="38.44169" lon="34.74397">
        <ele>1451.820893</ele>
        <time>2021-12-29T12:38:36.075Z</time>
      </trkpt>
      <trkpt lat="38.4396" lon="34.74314">
        <ele>1450.815913</ele>
        <time>2021-12-29T12:39:39.112Z</time>
      </trkpt>
      <trkpt lat="38.43681" lon="34.74209">
        <ele>1441.801484</ele>
        <time>2021-12-29T12:40:22.110Z</time>
      </trkpt>
      <trkpt lat="38.43482" lon="34.74133">
        <ele>1447.009281</ele>
        <time>2021-12-29T12:41:24.098Z</time>
      </trkpt>
      <trkpt lat="38.43284" lon="34.74059">
        <ele>1450.677126</ele>
        <time>2021-12-29T12:42:31.101Z</time>
      </trkpt>
      <trkpt lat="38.43088" lon="34.73986">
        <ele>1452.512821</ele>
        <time>2021-12-29T12:43:40.100Z</time>
      </trkpt>
      <trkpt lat="38.42893" lon="34.73897">
        <ele>1453.379712</ele>
        <time>2021-12-29T12:44:49.112Z</time>
      </trkpt>
      <trkpt lat="38.42687" lon="34.73834">
        <ele>1451.317938</ele>
        <time>2021-12-29T12:45:51.131Z</time>
      </trkpt>
      <trkpt lat="38.4247" lon="34.73775">
        <ele>1449.710468</ele>
        <time>2021-12-29T12:46:40.097Z</time>
      </trkpt>
      <trkpt lat="38.42264" lon="34.7372">
        <ele>1448.624182</ele>
        <time>2021-12-29T12:47:25.104Z</time>
      </trkpt>
      <trkpt lat="38.42037" lon="34.73659">
        <ele>1444.604604</ele>
        <time>2021-12-29T12:48:15.084Z</time>
      </trkpt>
      <trkpt lat="38.41751" lon="34.73595">
        <ele>1433.307677</ele>
        <time>2021-12-29T12:48:55.102Z</time>
      </trkpt>
      <trkpt lat="38.41449" lon="34.73613">
        <ele>1417.190528</ele>
        <time>2021-12-29T12:49:32.098Z</time>
      </trkpt>
      <trkpt lat="38.41207" lon="34.73641">
        <ele>1415.325527</ele>
        <time>2021-12-29T12:50:15.083Z</time>
      </trkpt>
      <trkpt lat="38.41006" lon="34.73663">
        <ele>1422.281817</ele>
        <time>2021-12-29T12:51:37.118Z</time>
      </trkpt>
      <trkpt lat="38.40819" lon="34.73682">
        <ele>1428.574744</ele>
        <time>2021-12-29T12:52:53.101Z</time>
      </trkpt>
      <trkpt lat="38.40604" lon="34.73708">
        <ele>1432.714729</ele>
        <time>2021-12-29T12:54:01.109Z</time>
      </trkpt>
      <trkpt lat="38.40392" lon="34.73731">
        <ele>1427.274886</ele>
        <time>2021-12-29T12:54:42.087Z</time>
      </trkpt>
      <trkpt lat="38.40172" lon="34.73757">
        <ele>1421.484378</ele>
        <time>2021-12-29T12:55:25.096Z</time>
      </trkpt>
      <trkpt lat="38.39948" lon="34.73765">
        <ele>1418.0478</ele>
        <time>2021-12-29T12:56:05.093Z</time>
      </trkpt>
      <trkpt lat="38.39735" lon="34.73755">
        <ele>1414.376283</ele>
        <time>2021-12-29T12:56:45.085Z</time>
      </trkpt>
      <trkpt lat="38.39515" lon="34.73717">
        <ele>1406.829716</ele>
        <time>2021-12-29T12:57:25.104Z</time>
      </trkpt>
      <trkpt lat="38.39281" lon="34.73686">
        <ele>1401.663842</ele>
        <time>2021-12-29T12:58:05.109Z</time>
      </trkpt>
      <trkpt lat="38.39037" lon="34.73649">
        <ele>1396.814822</ele>
        <time>2021-12-29T12:58:45.129Z</time>
      </trkpt>
      <trkpt lat="38.38812" lon="34.73612">
        <ele>1392.073469</ele>
        <time>2021-12-29T12:59:25.127Z</time>
      </trkpt>
      <trkpt lat="38.38588" lon="34.73573">
        <ele>1391.75139</ele>
        <time>2021-12-29T13:00:05.135Z</time>
      </trkpt>
      <trkpt lat="38.3837" lon="34.73537">
        <ele>1389.584389</ele>
        <time>2021-12-29T13:00:43.107Z</time>
      </trkpt>
      <trkpt lat="38.38161" lon="34.73506">
        <ele>1388.941039</ele>
        <time>2021-12-29T13:01:27.104Z</time>
      </trkpt>
      <trkpt lat="38.37938" lon="34.7346">
        <ele>1393.612479</ele>
        <time>2021-12-29T13:02:20.137Z</time>
      </trkpt>
      <trkpt lat="38.3772" lon="34.73345">
        <ele>1401.469428</ele>
        <time>2021-12-29T13:03:20.101Z</time>
      </trkpt>
      <trkpt lat="38.37551" lon="34.7343">
        <ele>1399.448831</ele>
        <time>2021-12-29T13:04:20.104Z</time>
      </trkpt>
      <trkpt lat="38.37609" lon="34.73475">
        <ele>1399.448831</ele>
        <time>2021-12-29T13:21:33.093Z</time>
      </trkpt>
    </trkseg>
  </trk>
</gpx>